Time;durP1;ratioP1;P1;durP2;ratioP2;P2;SDS_P1;SDS_P2;PMS_P1;PMS_P2;Temp;Humidity;BMP_temperature;BMP_pressure;BME280_temperature;BME280_humidity;BME280_pressure;Samples;Min_cycle;Max_cycle;Signal;HPM_P1;HPM_P2
2023/08/27 00:01:57;;;;;;;11.68;8.70;;;;;;;22.86;72.11;99782.75;5091585;28;20279;-64
2023/08/27 00:04:26;;;;;;;10.32;8.38;;;;;;;22.78;72.35;99779.81;5091609;28;20215;-67
2023/08/27 00:06:54;;;;;;;10.00;8.13;;;;;;;22.76;72.50;99786.97;5094876;28;20254;-64
2023/08/27 00:09:21;;;;;;;9.20;8.10;;;;;;;22.73;72.59;99776.66;5090624;28;20637;-65
2023/08/27 00:11:50;;;;;;;8.98;8.02;;;;;;;22.71;72.72;99779.38;5091569;28;20208;-64
2023/08/27 00:14:17;;;;;;;8.43;7.63;;;;;;;22.71;72.70;99774.09;5091883;28;20655;-64
2023/08/27 00:16:46;;;;;;;9.63;8.30;;;;;;;22.73;72.59;99766.97;5091580;28;20283;-66
2023/08/27 00:19:16;;;;;;;8.55;7.53;;;;;;;22.76;72.31;99760.69;5091750;28;20201;-63
2023/08/27 00:21:44;;;;;;;12.32;7.90;;;;;;;22.84;71.85;99774.16;5091224;28;20250;-65
2023/08/27 00:24:12;;;;;;;8.73;7.20;;;;;;;22.85;71.30;99783.72;5079271;28;20653;-64
2023/08/27 00:26:40;;;;;;;10.43;7.32;;;;;;;22.83;70.95;99790.88;5090362;28;20752;-66
2023/08/27 00:29:08;;;;;;;11.98;8.07;;;;;;;22.82;70.51;99790.00;5091490;28;20576;-66
2023/08/27 00:31:36;;;;;;;9.27;7.15;;;;;;;22.83;70.48;99788.25;5090333;28;20533;-65
2023/08/27 00:34:04;;;;;;;7.82;6.95;;;;;;;22.86;70.26;99788.00;5091130;28;20242;-64
2023/08/27 00:36:34;;;;;;;7.88;7.00;;;;;;;22.92;70.42;99792.06;5090903;28;20278;-66
2023/08/27 00:39:04;;;;;;;7.25;6.35;;;;;;;22.97;70.30;99789.97;5091763;28;20665;-65
2023/08/27 00:41:32;;;;;;;10.20;6.63;;;;;;;22.99;68.94;99803.84;5083279;28;20785;-64
2023/08/27 00:44:00;;;;;;;8.32;6.03;;;;;;;22.99;68.36;99815.19;5085906;28;20659;-66
2023/08/27 00:46:28;;;;;;;7.32;6.43;;;;;;;23.01;68.64;99831.69;5091132;28;20211;-63
2023/08/27 00:48:56;;;;;;;8.93;7.03;;;;;;;22.99;68.39;99830.97;5094671;28;20671;-65
2023/08/27 00:51:25;;;;;;;7.50;6.13;;;;;;;23.00;68.75;99845.78;5091054;28;20208;-65
2023/08/27 00:53:54;;;;;;;9.20;6.38;;;;;;;23.02;68.85;99841.28;5089590;28;20652;-65
2023/08/27 00:56:22;;;;;;;9.00;6.10;;;;;;;22.98;67.96;99831.91;5091529;28;20750;-64
2023/08/27 00:58:51;;;;;;;10.35;6.20;;;;;;;22.96;67.93;99835.59;5085886;28;20667;-65
2023/08/27 01:01:21;;;;;;;7.63;5.78;;;;;;;22.93;67.30;99830.53;5091287;28;20685;-64
2023/08/27 01:03:49;;;;;;;6.18;5.57;;;;;;;22.91;67.05;99833.22;5091297;28;20667;-64
2023/08/27 01:06:17;;;;;;;6.05;5.45;;;;;;;22.94;66.89;99833.06;5089874;28;20224;-64
2023/08/27 01:08:52;;;;;;;6.65;5.63;;;;;;;22.99;66.83;99824.88;5090498;28;20273;-64
2023/08/27 01:11:30;;;;;;;7.35;5.97;;;;;;;23.00;66.61;99818.66;5091981;28;20231;-63
2023/08/27 01:14:04;;;;;;;7.80;5.10;;;;;;;23.02;66.33;99808.91;5093130;28;20248;-65
2023/08/27 01:16:35;;;;;;;5.65;5.10;;;;;;;23.01;66.05;99807.19;5086632;28;20291;-66
2023/08/27 01:19:07;;;;;;;6.93;5.00;;;;;;;23.01;65.72;99815.91;5105991;28;20201;-65
2023/08/27 01:21:36;;;;;;;8.52;5.53;;;;;;;23.02;65.55;99809.75;5087176;28;20217;-65
2023/08/27 01:24:05;;;;;;;5.80;5.25;;;;;;;23.06;65.30;99813.00;5077957;28;20600;-65
2023/08/27 01:26:40;;;;;;;5.95;5.03;;;;;;;23.06;65.61;99816.47;5094856;28;20209;-64
2023/08/27 01:29:14;;;;;;;5.15;4.65;;;;;;;23.07;65.47;99820.78;5094662;28;20220;-66
2023/08/27 01:31:48;;;;;;;6.97;5.35;;;;;;;23.08;65.11;99825.06;5092057;28;20291;-65
2023/08/27 01:34:19;;;;;;;7.47;4.85;;;;;;;23.07;65.22;99833.91;5083024;28;20204;-63
2023/08/27 01:36:49;;;;;;;6.22;4.82;;;;;;;23.06;65.18;99837.50;5103430;28;20643;-64
2023/08/27 01:39:17;;;;;;;6.55;4.63;;;;;;;23.06;65.30;99841.91;5094961;28;20675;-64
2023/08/27 01:41:47;;;;;;;5.95;5.35;;;;;;;23.04;65.48;99854.31;5104233;28;20545;-63
2023/08/27 01:44:15;;;;;;;6.70;5.13;;;;;;;23.01;65.32;99868.47;5094826;28;20577;-64
2023/08/27 01:46:43;;;;;;;4.85;4.32;;;;;;;22.97;65.03;99869.63;5094268;28;20208;-67
2023/08/27 01:49:11;;;;;;;6.80;4.95;;;;;;;22.96;65.03;99878.47;5093120;28;20221;-64
2023/08/27 01:51:39;;;;;;;5.57;4.72;;;;;;;22.95;64.95;99876.78;5084234;28;20205;-66
2023/08/27 01:54:09;;;;;;;8.27;4.45;;;;;;;22.96;64.96;99881.09;5090652;28;20211;-64
2023/08/27 01:56:37;;;;;;;6.40;4.80;;;;;;;22.98;65.20;99876.59;5093996;28;20236;-65
2023/08/27 01:59:05;;;;;;;6.30;4.50;;;;;;;23.00;65.16;99890.44;5094335;28;20201;-64
2023/08/27 02:01:33;;;;;;;6.30;5.30;;;;;;;22.98;65.57;99892.34;5094225;28;20201;-65
2023/08/27 02:04:01;;;;;;;6.85;4.90;;;;;;;22.98;65.53;99892.34;5092744;28;20200;-64
2023/08/27 02:06:29;;;;;;;6.20;4.97;;;;;;;22.97;65.17;99890.66;5094155;28;20644;-65
2023/08/27 02:08:57;;;;;;;5.18;4.57;;;;;;;22.97;65.11;99879.28;5093708;28;20257;-64
2023/08/27 02:11:26;;;;;;;5.85;5.18;;;;;;;22.99;65.37;99872.16;5094056;28;20557;-64
2023/08/27 02:13:54;;;;;;;6.68;5.13;;;;;;;23.01;64.78;99865.00;5103404;28;20197;-65
2023/08/27 02:16:22;;;;;;;5.22;4.82;;;;;;;22.96;64.59;99851.34;5103574;28;20207;-67
2023/08/27 02:18:51;;;;;;;8.93;4.53;;;;;;;22.91;64.78;99843.75;5092599;28;20667;-66
2023/08/27 02:21:19;;;;;;;4.88;4.47;;;;;;;22.93;65.23;99841.88;5088304;28;20222;-64
2023/08/27 02:23:46;;;;;;;5.40;4.43;;;;;;;22.94;65.23;99845.34;5102088;28;20712;-64
2023/08/27 02:26:14;;;;;;;5.25;4.50;;;;;;;22.95;65.79;99840.00;5093897;28;20204;-65
2023/08/27 02:28:44;;;;;;;7.13;5.15;;;;;;;23.00;66.21;99837.06;5093401;28;20254;-64
2023/08/27 02:31:12;;;;;;;8.40;4.97;;;;;;;23.01;66.44;99834.31;5093537;28;20683;-67
2023/08/27 02:33:40;;;;;;;5.63;4.28;;;;;;;23.01;66.67;99844.81;5093380;28;20307;-65
2023/08/27 02:36:08;;;;;;;5.57;4.80;;;;;;;23.03;67.09;99848.22;5092082;28;20690;-64
2023/08/27 02:38:37;;;;;;;5.32;4.43;;;;;;;23.00;67.15;99847.56;5093380;28;20208;-63
2023/08/27 02:41:04;;;;;;;4.65;4.25;;;;;;;23.00;67.02;99842.31;5093333;28;20273;-64
2023/08/27 02:43:32;;;;;;;5.32;4.15;;;;;;;23.00;67.41;99845.78;5094990;28;20246;-64
2023/08/27 02:46:04;;;;;;;5.18;4.25;;;;;;;22.98;67.79;99850.31;5085575;28;20662;-64
2023/08/27 02:48:32;;;;;;;4.82;4.13;;;;;;;22.95;67.50;99860.19;5101355;28;20212;-65
2023/08/27 02:51:00;;;;;;;6.35;4.63;;;;;;;22.90;67.99;99873.56;5092972;28;20680;-67
2023/08/27 02:53:28;;;;;;;7.72;4.95;;;;;;;22.80;68.19;99870.72;5095313;28;20269;-63
2023/08/27 02:55:56;;;;;;;6.00;4.40;;;;;;;22.68;67.81;99858.34;5092845;28;20236;-65
2023/08/27 02:58:24;;;;;;;5.82;4.63;;;;;;;22.64;67.74;99862.13;5093353;28;20208;-64
2023/08/27 03:00:54;;;;;;;5.50;4.63;;;;;;;22.60;67.74;99855.38;5092959;28;20291;-65
2023/08/27 03:03:23;;;;;;;6.90;4.72;;;;;;;22.62;67.08;99838.59;5092773;28;20709;-64
2023/08/27 03:05:51;;;;;;;7.50;4.88;;;;;;;22.60;66.92;99827.34;5092674;28;20197;-65
2023/08/27 03:08:20;;;;;;;6.03;5.25;;;;;;;22.55;66.80;99832.06;5091736;28;20659;-65
2023/08/27 03:10:48;;;;;;;6.07;4.95;;;;;;;22.54;67.11;99826.91;5078263;28;20655;-65
2023/08/27 03:13:16;;;;;;;7.00;5.25;;;;;;;22.51;66.79;99820.06;5081068;28;20217;-64
2023/08/27 03:15:44;;;;;;;6.93;4.68;;;;;;;22.50;66.96;99821.03;5090469;28;20685;-63
2023/08/27 03:18:12;;;;;;;5.15;4.65;;;;;;;22.53;67.70;99818.16;5102945;28;20292;-66
2023/08/27 03:20:41;;;;;;;5.13;4.72;;;;;;;22.58;68.13;99816.09;5109020;28;20278;-64
2023/08/27 03:23:09;;;;;;;6.15;4.85;;;;;;;22.58;68.65;99808.22;5091486;28;20254;-65
2023/08/27 03:25:37;;;;;;;6.10;4.95;;;;;;;22.58;68.07;99808.22;5092286;28;20663;-67
2023/08/27 03:28:06;;;;;;;6.15;5.07;;;;;;;22.54;67.51;99798.88;5091408;28;20231;-65
2023/08/27 03:30:34;;;;;;;7.47;4.88;;;;;;;22.51;67.13;99809.56;5092202;28;20213;-64
2023/08/27 03:33:02;;;;;;;7.50;5.05;;;;;;;22.47;67.25;99802.84;5087704;28;20206;-66
2023/08/27 03:35:30;;;;;;;5.40;4.88;;;;;;;22.42;67.57;99789.13;5081981;28;20240;-66
2023/08/27 03:38:00;;;;;;;9.07;5.32;;;;;;;22.37;67.41;99791.22;5093126;28;20220;-66
2023/08/27 03:40:28;;;;;;;8.25;5.13;;;;;;;22.33;67.50;99781.88;5082406;28;20205;-64
2023/08/27 03:42:56;;;;;;;6.78;5.65;;;;;;;22.28;67.79;99776.09;5088121;28;20615;-64
2023/08/27 03:45:24;;;;;;;6.57;5.00;;;;;;;22.23;68.00;99763.25;5091309;28;20261;-64
2023/08/27 03:47:52;;;;;;;6.15;5.55;;;;;;;22.17;67.92;99753.16;5092110;28;20667;-64
2023/08/27 03:50:20;;;;;;;6.63;5.32;;;;;;;22.13;68.28;99744.59;5106378;28;20255;-65
2023/08/27 03:52:49;;;;;;;6.97;6.15;;;;;;;22.08;68.24;99744.03;5099462;28;20200;-65
2023/08/27 03:55:19;;;;;;;7.32;5.68;;;;;;;22.08;68.24;99741.41;5091911;28;20232;-65
2023/08/27 03:57:47;;;;;;;7.97;5.95;;;;;;;22.09;68.31;99742.25;5091908;28;20629;-64
2023/08/27 04:00:15;;;;;;;8.48;5.03;;;;;;;22.08;68.37;99743.22;5100031;28;20205;-66
2023/08/27 04:02:45;;;;;;;8.45;5.57;;;;;;;22.06;68.49;99742.47;5090586;28;20652;-65
2023/08/27 04:05:13;;;;;;;5.57;5.07;;;;;;;22.05;68.60;99744.22;5091923;28;20261;-65
2023/08/27 04:07:41;;;;;;;7.63;5.22;;;;;;;22.05;68.39;99744.22;5093329;28;20204;-69
2023/08/27 04:10:10;;;;;;;6.68;5.63;;;;;;;22.05;68.51;99738.97;5096343;28;20204;-65
2023/08/27 04:12:39;;;;;;;8.90;5.78;;;;;;;22.03;68.13;99740.03;5091865;28;20234;-65
2023/08/27 04:15:08;;;;;;;7.72;4.93;;;;;;;22.07;68.20;99741.53;5091479;28;20201;-65
2023/08/27 04:17:36;;;;;;;5.30;4.70;;;;;;;22.08;68.03;99733.53;5098953;28;20708;-67
2023/08/27 04:20:05;;;;;;;7.03;5.40;;;;;;;22.12;67.64;99740.28;5083914;28;20216;-65
2023/08/27 04:22:33;;;;;;;7.40;5.38;;;;;;;22.12;67.67;99748.16;5086256;28;20205;-66
2023/08/27 04:25:02;;;;;;;8.50;5.53;;;;;;;22.13;67.75;99756.88;5083295;28;20200;-66
2023/08/27 04:27:30;;;;;;;6.03;5.40;;;;;;;22.16;67.87;99772.44;5091742;28;20660;-65
2023/08/27 04:29:59;;;;;;;7.75;4.95;;;;;;;22.26;67.99;99783.22;5077571;28;20621;-65
2023/08/27 04:32:27;;;;;;;6.05;4.97;;;;;;;22.34;68.02;99791.44;5091507;28;20242;-65
2023/08/27 04:34:55;;;;;;;6.47;5.50;;;;;;;22.47;67.71;99786.25;5089712;28;20721;-65
2023/08/27 04:37:23;;;;;;;8.10;5.47;;;;;;;22.56;67.15;99781.22;5091397;28;20223;-65
2023/08/27 04:39:51;;;;;;;7.20;6.50;;;;;;;22.61;66.62;99768.63;5091217;28;20258;-64
2023/08/27 04:42:19;;;;;;;6.40;5.80;;;;;;;22.61;66.11;99758.13;5086256;28;20292;-65
2023/08/27 04:44:47;;;;;;;7.75;5.75;;;;;;;22.65;65.79;99764.03;5082887;28;20271;-64
2023/08/27 04:47:17;;;;;;;8.43;5.53;;;;;;;22.63;65.57;99756.22;5091156;28;20197;-66
2023/08/27 04:49:45;;;;;;;8.63;5.63;;;;;;;22.64;65.65;99760.56;5091016;28;20250;-65
2023/08/27 04:52:14;;;;;;;5.70;5.13;;;;;;;22.65;65.51;99764.88;5089812;28;20224;-65
2023/08/27 04:54:58;;;;;;;5.40;4.90;;;;;;;22.64;65.43;99764.94;5091326;28;20291;-66
2023/08/27 04:57:26;;;;;;;6.88;5.90;;;;;;;22.63;65.43;99765.91;5091209;28;20583;-65
2023/08/27 04:59:55;;;;;;;9.68;5.78;;;;;;;22.60;65.28;99766.09;5090927;28;20236;-64
2023/08/27 05:02:24;;;;;;;7.57;5.20;;;;;;;22.59;65.45;99760.00;5091107;28;20205;-65
2023/08/27 05:04:52;;;;;;;6.10;5.47;;;;;;;22.57;65.43;99766.28;5090931;28;20209;-64
2023/08/27 05:07:20;;;;;;;6.47;5.47;;;;;;;22.51;65.79;99770.19;5100571;28;20278;-65
2023/08/27 05:09:48;;;;;;;9.75;6.68;;;;;;;22.48;65.90;99767.75;5090279;28;20690;-64
2023/08/27 05:12:16;;;;;;;8.15;5.95;;;;;;;22.41;66.21;99772.56;5089450;28;20227;-65
2023/08/27 05:14:44;;;;;;;8.43;5.97;;;;;;;22.36;66.58;99765.94;5091029;28;20232;-65
2023/08/27 05:17:12;;;;;;;7.55;5.75;;;;;;;22.33;66.70;99774.00;5090965;28;20651;-66
2023/08/27 05:19:42;;;;;;;9.18;6.55;;;;;;;22.32;66.84;99757.41;5091160;28;20663;-64
2023/08/27 05:22:10;;;;;;;9.00;5.97;;;;;;;22.35;67.23;99761.59;5088890;28;20204;-67
2023/08/27 05:24:38;;;;;;;8.68;6.45;;;;;;;22.43;66.59;99767.22;5079433;28;20668;-65
2023/08/27 05:27:05;;;;;;;6.55;5.90;;;;;;;22.57;66.41;99772.41;5090933;28;20648;-65
2023/08/27 05:29:33;;;;;;;7.13;5.30;;;;;;;22.73;65.84;99766.97;5090592;28;20216;-65
2023/08/27 05:32:02;;;;;;;7.05;5.72;;;;;;;22.86;65.57;99761.75;5090711;28;20216;-65
2023/08/27 05:34:30;;;;;;;7.03;5.78;;;;;;;22.94;65.39;99770.00;5088964;28;20371;-64
2023/08/27 05:37:00;;;;;;;7.07;5.80;;;;;;;23.02;64.84;99770.31;5078247;28;20722;-67
2023/08/27 05:39:28;;;;;;;7.30;6.47;;;;;;;23.06;64.71;99776.22;5089455;28;20321;-65
2023/08/27 05:41:56;;;;;;;9.23;6.47;;;;;;;23.08;64.67;99780.41;5090702;28;20229;-64
2023/08/27 05:44:24;;;;;;;7.70;6.07;;;;;;;23.07;64.41;99778.72;5090929;28;20212;-66
2023/08/27 05:46:52;;;;;;;7.00;5.93;;;;;;;23.12;64.37;99781.03;5083720;28;20201;-66
2023/08/27 05:49:20;;;;;;;6.53;5.50;;;;;;;23.23;64.13;99785.56;5090899;28;20204;-65
2023/08/27 05:51:48;;;;;;;6.00;5.07;;;;;;;23.31;63.55;99780.66;5086114;28;20677;-65
2023/08/27 05:54:17;;;;;;;6.47;5.72;;;;;;;23.37;63.43;99773.16;5081397;28;20216;-68
2023/08/27 05:56:45;;;;;;;6.88;6.25;;;;;;;23.46;63.12;99766.44;5090335;28;20403;-70
2023/08/27 05:59:15;;;;;;;6.80;5.90;;;;;;;23.54;63.08;99769.38;5091073;28;20243;-65
2023/08/27 06:01:43;;;;;;;9.82;6.28;;;;;;;23.61;63.04;99764.53;5094031;28;20204;-66
2023/08/27 06:04:11;;;;;;;6.32;5.72;;;;;;;23.74;62.46;99764.53;5086239;28;20229;-64
2023/08/27 06:06:40;;;;;;;7.47;5.80;;;;;;;23.98;61.89;99761.94;5094017;28;20204;-65
2023/08/27 06:09:08;;;;;;;7.13;5.80;;;;;;;24.32;61.31;99760.34;5093961;28;20211;-66
2023/08/27 06:11:37;;;;;;;6.57;5.97;;;;;;;24.70;59.49;99765.41;5093883;28;20368;-66
2023/08/27 06:14:06;;;;;;;8.70;7.85;;;;;;;25.23;57.91;99762.38;5094036;28;20223;-65
2023/08/27 06:16:34;;;;;;;8.25;7.38;;;;;;;25.96;55.80;99756.59;5092428;28;20285;-67
2023/08/27 06:19:02;;;;;;;12.48;10.98;;;;;;;26.74;53.67;99744.94;5085967;28;20228;-65
2023/08/27 06:21:30;;;;;;;8.25;6.10;;;;;;;27.57;51.02;99739.69;5088173;28;20242;-70
2023/08/27 06:23:58;;;;;;;6.50;5.90;;;;;;;28.63;48.39;99741.69;5083650;28;20634;-66
2023/08/27 06:26:26;;;;;;;6.85;6.15;;;;;;;29.51;45.50;99737.03;5093905;28;20204;-65
2023/08/27 06:28:55;;;;;;;6.55;5.82;;;;;;;30.27;43.35;99719.00;5093688;28;20323;-65
2023/08/27 06:31:24;;;;;;;5.97;5.38;;;;;;;31.26;41.06;99724.03;5092182;28;20196;-65
2023/08/27 06:33:54;;;;;;;6.90;5.55;;;;;;;32.15;38.86;99725.38;5079450;28;20196;-66
2023/08/27 06:36:22;;;;;;;6.45;5.53;;;;;;;32.89;37.44;99717.38;5093217;28;20316;-67
2023/08/27 06:38:50;;;;;;;6.78;5.43;;;;;;;33.71;35.81;99717.16;5090475;28;20570;-65
2023/08/27 06:41:18;;;;;;;7.43;5.55;;;;;;;34.34;34.45;99718.75;5082849;28;20593;-65
2023/08/27 06:43:46;;;;;;;10.27;8.50;;;;;;;35.02;33.30;99723.22;5098446;28;20227;-64
2023/08/27 06:46:15;;;;;;;7.40;5.63;;;;;;;35.71;31.86;99728.25;5075180;28;20200;-66
2023/08/27 06:48:44;;;;;;;7.65;6.95;;;;;;;36.39;31.73;99730.63;5093022;28;20208;-67
2023/08/27 06:51:12;;;;;;;9.48;7.88;;;;;;;37.08;29.53;99724.56;5093327;28;20304;-67
2023/08/27 06:53:40;;;;;;;6.45;5.50;;;;;;;37.60;28.78;99723.22;5093269;28;20687;-65
2023/08/27 06:56:08;;;;;;;7.75;6.30;;;;;;;37.87;27.96;99719.56;5092866;28;20279;-65
2023/08/27 06:58:36;;;;;;;6.60;5.18;;;;;;;38.57;27.54;99719.28;5092934;28;20246;-66
2023/08/27 07:01:04;;;;;;;5.22;4.75;;;;;;;38.92;26.47;99719.06;5090472;28;20208;-65
2023/08/27 07:03:34;;;;;;;5.22;4.72;;;;;;;39.31;25.71;99716.28;5092951;28;20663;-65
2023/08/27 07:06:05;;;;;;;6.75;5.22;;;;;;;39.50;25.29;99719.13;5092821;28;20391;-69
2023/08/27 07:08:33;;;;;;;6.13;4.90;;;;;;;39.70;25.31;99724.47;5092609;28;20295;-72
2023/08/27 07:11:03;;;;;;;8.20;4.70;;;;;;;40.28;24.83;99724.31;5092529;28;20291;-66
2023/08/27 07:13:34;;;;;;;8.20;5.03;;;;;;;41.57;23.00;99736.16;5092559;28;20216;-67
2023/08/27 07:16:03;;;;;;;7.57;5.07;;;;;;;42.32;22.12;99726.81;5096515;28;20280;-68
2023/08/27 07:18:31;;;;;;;6.38;5.57;;;;;;;42.32;21.28;99710.56;5097477;28;20204;-65
2023/08/27 07:21:00;;;;;;;5.28;4.85;;;;;;;41.49;22.57;99706.72;5096221;28;20200;-67
2023/08/27 07:23:28;;;;;;;7.50;5.03;;;;;;;41.45;22.88;99695.53;5094299;28;20196;-66
2023/08/27 07:25:59;;;;;;;5.40;4.35;;;;;;;41.71;21.93;99705.16;5093484;28;20616;-66
2023/08/27 07:28:29;;;;;;;5.18;4.57;;;;;;;41.78;21.16;99707.78;5092600;28;20669;-66
2023/08/27 07:30:58;;;;;;;6.90;3.97;;;;;;;41.70;20.74;99711.63;5092326;28;20213;-66
2023/08/27 07:33:27;;;;;;;4.40;3.15;;;;;;;41.43;20.96;99713.88;5092450;28;20678;-64
2023/08/27 07:35:55;;;;;;;4.57;3.13;;;;;;;41.21;21.16;99705.38;5090837;28;20289;-66
2023/08/27 07:38:27;;;;;;;5.60;3.63;;;;;;;40.88;21.41;99711.13;5092234;28;20671;-66
2023/08/27 07:40:58;;;;;;;6.20;5.20;;;;;;;41.13;21.42;99721.06;5073679;28;20265;-65
2023/08/27 07:43:26;;;;;;;5.40;4.43;;;;;;;42.04;20.97;99717.41;5087471;28;20203;-66
2023/08/27 07:45:54;;;;;;;4.32;3.38;;;;;;;42.67;19.53;99719.53;5092008;28;20360;-66
2023/08/27 07:48:22;;;;;;;5.00;3.90;;;;;;;42.54;20.38;99724.38;5096471;28;20298;-67
2023/08/27 07:50:51;;;;;;;4.93;3.70;;;;;;;41.98;21.43;99727.31;5092353;28;20196;-65
2023/08/27 07:53:19;;;;;;;3.65;3.35;;;;;;;41.78;21.25;99720.50;5090567;28;20689;-66
2023/08/27 07:55:48;;;;;;;3.75;3.40;;;;;;;41.96;21.28;99717.75;5091936;28;20196;-66
2023/08/27 07:58:16;;;;;;;4.53;3.50;;;;;;;42.30;21.27;99720.78;5091624;28;20199;-65
2023/08/27 08:00:44;;;;;;;6.00;4.00;;;;;;;42.64;20.95;99721.88;5091752;28;20200;-66
2023/08/27 08:03:12;;;;;;;4.88;3.58;;;;;;;42.51;20.67;99731.06;5090494;28;20291;-66
2023/08/27 08:05:40;;;;;;;3.70;3.35;;;;;;;42.36;21.32;99733.41;5101466;28;20200;-65
2023/08/27 08:08:09;;;;;;;4.32;3.53;;;;;;;42.55;21.01;99734.97;5081299;28;20232;-65
2023/08/27 08:10:37;;;;;;;5.78;3.88;;;;;;;43.48;20.34;99727.84;5087950;28;20565;-66
2023/08/27 08:13:08;;;;;;;5.22;3.58;;;;;;;44.64;19.08;99726.63;5091363;28;20313;-66
2023/08/27 08:15:36;;;;;;;4.60;3.90;;;;;;;44.79;18.87;99718.72;5091465;28;20703;-68
2023/08/27 08:18:04;;;;;;;6.53;3.83;;;;;;;44.09;19.27;99712.69;5091847;28;20203;-66
2023/08/27 08:20:33;;;;;;;4.13;3.78;;;;;;;43.26;20.23;99702.41;5088171;28;20246;-65
2023/08/27 08:23:01;;;;;;;3.83;3.53;;;;;;;42.56;20.81;99704.09;5082878;28;20232;-66
2023/08/27 08:25:31;;;;;;;5.25;3.70;;;;;;;42.25;21.69;99689.00;5090874;28;20690;-67
2023/08/27 08:27:59;;;;;;;4.30;3.90;;;;;;;41.86;21.87;99690.41;5091171;28;20212;-65
2023/08/27 08:30:29;;;;;;;3.28;2.97;;;;;;;41.60;21.97;99686.19;5091093;28;20204;-67
2023/08/27 08:32:57;;;;;;;4.63;3.55;;;;;;;41.35;23.02;99683.56;5091245;28;20222;-66
2023/08/27 08:35:25;;;;;;;4.20;3.78;;;;;;;41.02;23.24;99690.19;5089222;28;20367;-66
2023/08/27 08:37:53;;;;;;;4.70;3.42;;;;;;;40.93;23.04;99683.44;5091039;28;20218;-66
2023/08/27 08:40:21;;;;;;;3.72;3.30;;;;;;;41.95;21.89;99683.63;5090891;28;20249;-66
2023/08/27 08:42:53;;;;;;;6.43;3.28;;;;;;;42.46;21.06;99682.19;5091381;28;20196;-66
2023/08/27 08:45:30;;;;;;;4.32;3.30;;;;;;;41.89;21.89;99690.78;5090055;28;20728;-65
2023/08/27 08:48:07;;;;;;;3.63;3.33;;;;;;;41.81;22.04;99692.97;5091001;28;20706;-66
2023/08/27 08:50:37;;;;;;;3.33;3.00;;;;;;;42.00;22.17;99691.88;5091148;28;20203;-67
2023/08/27 08:53:12;;;;;;;4.43;3.53;;;;;;;42.17;21.29;99687.44;5090834;28;20752;-66
2023/08/27 08:55:42;;;;;;;3.85;3.10;;;;;;;40.42;22.91;99682.66;5091181;28;20196;-67
2023/08/27 08:58:13;;;;;;;4.68;3.42;;;;;;;38.03;26.15;99691.47;5091267;28;20235;-66
2023/08/27 09:00:41;;;;;;;4.82;3.65;;;;;;;36.25;29.32;99684.91;5089777;28;20239;-65
2023/08/27 09:03:11;;;;;;;9.85;8.85;;;;;;;34.64;32.30;99678.72;5085976;28;20197;-66
2023/08/27 09:05:40;;;;;;;4.78;4.38;;;;;;;33.52;33.99;99681.84;5081987;28;20254;-65
2023/08/27 09:08:10;;;;;;;4.90;3.83;;;;;;;33.21;35.65;99671.09;5090875;28;20196;-64
2023/08/27 09:10:39;;;;;;;4.95;3.80;;;;;;;32.74;35.74;99671.88;5073060;28;20204;-66
2023/08/27 09:13:08;;;;;;;4.70;3.72;;;;;;;32.31;37.03;99662.41;5091111;28;20687;-64
2023/08/27 09:15:36;;;;;;;3.63;3.33;;;;;;;32.04;37.72;99661.72;5091172;28;20213;-66
2023/08/27 09:18:04;;;;;;;6.45;3.85;;;;;;;32.11;37.02;99657.41;5089917;28;20240;-65
2023/08/27 09:20:34;;;;;;;4.72;3.83;;;;;;;31.83;37.71;99656.84;5089587;28;20283;-66
2023/08/27 09:23:02;;;;;;;5.30;3.90;;;;;;;31.35;38.70;99652.22;5081771;28;20606;-65
2023/08/27 09:25:30;;;;;;;4.85;4.03;;;;;;;31.14;40.27;99656.09;5088208;28;20215;-65
2023/08/27 09:27:59;;;;;;;4.95;3.30;;;;;;;31.69;40.17;99666.28;5076383;28;20246;-65
2023/08/27 09:30:31;;;;;;;4.18;3.47;;;;;;;31.78;38.59;99680.47;5089978;28;20311;-66
2023/08/27 09:33:00;;;;;;;5.85;4.00;;;;;;;31.53;39.20;99674.25;5093971;28;20293;-65
2023/08/27 09:35:38;;;;;;;5.63;3.70;;;;;;;31.15;39.98;99671.09;5094404;28;20216;-66
2023/08/27 09:38:06;;;;;;;4.35;3.90;;;;;;;30.68;41.69;99660.81;5088600;28;20246;-65
2023/08/27 09:40:35;;;;;;;4.57;4.18;;;;;;;30.25;42.20;99662.47;5085330;28;20232;-65
2023/08/27 09:43:05;;;;;;;5.55;4.32;;;;;;;29.87;43.15;99660.94;5094260;28;20197;-65
2023/08/27 09:45:34;;;;;;;4.53;3.70;;;;;;;29.49;44.73;99659.34;5094711;28;20213;-65
2023/08/27 09:48:02;;;;;;;5.30;4.07;;;;;;;29.29;45.05;99656.78;5096006;28;20215;-68
2023/08/27 09:50:32;;;;;;;4.32;3.78;;;;;;;29.54;46.00;99643.81;5092996;28;20216;-64
2023/08/27 09:53:12;;;;;;;4.90;3.78;;;;;;;30.55;44.11;99637.28;5107650;28;20208;-65
2023/08/27 09:55:41;;;;;;;4.82;3.60;;;;;;;31.59;41.04;99633.63;5081850;28;20197;-64
2023/08/27 09:58:10;;;;;;;5.80;3.55;;;;;;;31.97;39.64;99624.25;5094192;28;20219;-66
2023/08/27 10:00:39;;;;;;;5.55;4.20;;;;;;;31.68;39.59;99621.19;5107405;28;20599;-64
2023/08/27 10:03:06;;;;;;;4.43;3.80;;;;;;;31.10;41.25;99620.13;5094115;28;20208;-65
2023/08/27 10:05:35;;;;;;;3.95;3.55;;;;;;;30.58;42.02;99617.53;5092851;28;20698;-66
2023/08/27 10:08:05;;;;;;;5.32;3.70;;;;;;;30.10;42.76;99618.81;5095788;28;20207;-65
2023/08/27 10:10:36;;;;;;;3.65;3.30;;;;;;;29.70;43.89;99606.81;5086869;28;20612;-65
2023/08/27 10:13:05;;;;;;;4.50;4.10;;;;;;;29.83;44.19;99599.31;5090212;28;20679;-65
2023/08/27 10:15:35;;;;;;;3.95;3.55;;;;;;;30.83;42.64;99597.25;5096269;28;20220;-67
2023/08/27 10:18:05;;;;;;;4.47;3.67;;;;;;;32.01;40.08;99590.09;5094338;28;20702;-67
2023/08/27 10:20:33;;;;;;;4.50;3.47;;;;;;;32.01;39.02;99592.75;5095555;28;21520;-65
2023/08/27 10:23:03;;;;;;;5.28;3.95;;;;;;;31.70;39.77;99597.84;5093748;28;20204;-67
2023/08/27 10:25:35;;;;;;;4.03;3.47;;;;;;;31.36;40.39;99595.31;5093806;28;20266;-65
2023/08/27 10:28:06;;;;;;;4.10;3.70;;;;;;;30.95;41.34;99587.97;5093510;28;20200;-64
2023/08/27 10:30:35;;;;;;;3.25;3.05;;;;;;;30.79;41.35;99594.06;5093475;28;20205;-64
2023/08/27 10:33:04;;;;;;;3.80;3.35;;;;;;;30.71;40.31;99596.66;5091185;28;20196;-65
2023/08/27 10:35:36;;;;;;;4.18;3.70;;;;;;;30.92;40.59;99584.81;5103804;28;20630;-65
2023/08/27 10:38:07;;;;;;;3.58;3.20;;;;;;;31.31;39.36;99581.66;5093296;28;20208;-66
2023/08/27 10:40:37;;;;;;;3.33;2.95;;;;;;;31.30;39.09;99586.13;5083008;28;20242;-65
2023/08/27 10:43:08;;;;;;;3.65;2.97;;;;;;;30.93;39.58;99587.31;5093532;28;20200;-66
2023/08/27 10:45:40;;;;;;;3.45;3.15;;;;;;;30.82;40.25;99584.94;5087889;28;20266;-68
2023/08/27 10:48:10;;;;;;;4.05;3.38;;;;;;;30.64;41.14;99579.66;5084401;28;20636;-65
2023/08/27 10:50:44;;;;;;;4.60;3.67;;;;;;;30.24;42.13;99567.78;5082977;28;20689;-66
2023/08/27 10:53:12;;;;;;;3.78;3.30;;;;;;;30.05;42.87;99557.34;5093512;28;20204;-64
2023/08/27 10:55:44;;;;;;;3.70;3.33;;;;;;;29.77;43.67;99565.41;5093229;28;20208;-64
2023/08/27 10:58:16;;;;;;;3.30;3.00;;;;;;;29.54;43.84;99565.00;5093063;28;20209;-67
2023/08/27 11:01:04;;;;;;;3.15;2.92;;;;;;;29.75;43.77;99567.38;5093425;28;20581;-64
2023/08/27 11:03:51;;;;;;;3.75;3.38;;;;;;;29.68;43.92;99566.31;5092883;28;20205;-65
2023/08/27 11:06:20;;;;;;;3.95;3.55;;;;;;;29.36;44.21;99575.59;5091766;28;20211;-65
2023/08/27 11:08:52;;;;;;;3.75;3.45;;;;;;;29.11;45.32;99576.31;5083005;28;20213;-65
2023/08/27 11:11:26;;;;;;;4.38;3.13;;;;;;;28.94;45.65;99566.44;5089603;28;20208;-64
2023/08/27 11:14:02;;;;;;;4.28;3.65;;;;;;;28.79;45.62;99564.28;5092958;28;20651;-64
2023/08/27 11:16:48;;;;;;;4.43;3.70;;;;;;;28.83;45.60;99565.69;5098534;28;20211;-64
2023/08/27 11:19:26;;;;;;;4.57;3.45;;;;;;;29.24;45.32;99562.69;5092813;28;20212;-65
2023/08/27 11:22:09;;;;;;;4.57;3.22;;;;;;;29.95;43.34;99562.72;5080984;28;20557;-65
2023/08/27 11:24:42;;;;;;;4.03;3.60;;;;;;;30.50;42.39;99562.47;5087693;28;20208;-66
2023/08/27 11:27:14;;;;;;;4.35;3.63;;;;;;;30.92;41.85;99553.72;5092696;28;20288;-66
2023/08/27 11:29:44;;;;;;;3.85;3.20;;;;;;;31.12;41.67;99550.81;5092708;28;20197;-64
2023/08/27 11:32:13;;;;;;;3.97;3.58;;;;;;;31.22;41.46;99554.97;5092586;28;20216;-64
2023/08/27 11:34:43;;;;;;;5.75;3.50;;;;;;;31.08;41.24;99560.94;5091602;28;20679;-66
2023/08/27 11:37:11;;;;;;;4.35;3.65;;;;;;;31.13;42.01;99557.78;5092245;28;20285;-65
2023/08/27 11:39:42;;;;;;;3.40;2.88;;;;;;;31.06;41.69;99546.94;5090101;28;20213;-63
2023/08/27 11:42:12;;;;;;;4.95;3.10;;;;;;;30.89;41.02;99543.38;5080852;28;20201;-65
2023/08/27 11:44:48;;;;;;;4.72;3.78;;;;;;;30.67;41.05;99541.25;5092182;28;20215;-63